createdAt,value
2023-05-25T00:01:38.722Z,99.90
2023-05-25T00:04:06.477Z,99.90
2023-05-25T00:06:33.777Z,99.90
2023-05-25T00:09:01.589Z,99.90
2023-05-25T00:11:28.970Z,99.90
2023-05-25T00:13:56.498Z,99.90
2023-05-25T00:16:23.772Z,99.90
2023-05-25T00:18:51.125Z,99.90
2023-05-25T00:21:18.295Z,99.90
2023-05-25T00:23:46.391Z,99.90
2023-05-25T00:26:13.536Z,99.90
2023-05-25T00:28:40.745Z,99.90
2023-05-25T00:31:08.006Z,99.90
2023-05-25T00:33:35.627Z,99.90
2023-05-25T00:36:03.705Z,99.90
2023-05-25T00:38:31.053Z,99.90
2023-05-25T00:40:58.304Z,99.90
2023-05-25T00:43:25.676Z,99.90
2023-05-25T00:45:53.102Z,99.90
2023-05-25T00:48:20.657Z,99.90
2023-05-25T00:50:48.093Z,99.90
2023-05-25T00:53:15.410Z,99.90
2023-05-25T00:55:51.103Z,99.90
2023-05-25T00:58:21.871Z,99.90
2023-05-25T01:00:53.551Z,99.90
2023-05-25T01:03:28.136Z,99.90
2023-05-25T01:05:58.111Z,99.90
2023-05-25T01:08:27.045Z,99.90
2023-05-25T01:10:55.044Z,99.90
2023-05-25T01:13:22.507Z,99.90
2023-05-25T01:15:51.331Z,99.90
2023-05-25T01:18:18.607Z,99.90
2023-05-25T01:21:20.342Z,99.90
2023-05-25T01:23:53.208Z,99.90
2023-05-25T01:26:22.134Z,99.90
2023-05-25T01:28:53.363Z,99.90
2023-05-25T01:31:23.639Z,99.90
2023-05-25T01:33:52.102Z,99.90
2023-05-25T01:36:20.192Z,99.90
2023-05-25T01:38:48.102Z,99.90
2023-05-25T01:41:15.253Z,99.90
2023-05-25T01:43:43.018Z,99.90
2023-05-25T01:46:18.842Z,99.90
2023-05-25T01:48:56.045Z,99.90
2023-05-25T01:51:36.379Z,99.90
2023-05-25T01:54:12.197Z,99.90
2023-05-25T01:56:40.314Z,99.90
2023-05-25T01:59:09.404Z,99.90
2023-05-25T02:01:37.348Z,99.90
2023-05-25T02:04:06.336Z,99.90
2023-05-25T02:06:35.630Z,99.90
2023-05-25T02:09:06.556Z,99.90
2023-05-25T02:11:33.873Z,99.90
2023-05-25T02:14:01.447Z,99.90
2023-05-25T02:16:30.194Z,99.90
2023-05-25T02:19:00.778Z,99.90
2023-05-25T02:21:28.364Z,99.90
2023-05-25T02:23:58.200Z,99.90
2023-05-25T02:26:25.601Z,99.90
2023-05-25T02:28:52.861Z,99.90
2023-05-25T02:31:20.058Z,99.90
2023-05-25T02:33:47.541Z,99.90
2023-05-25T02:36:14.724Z,99.90
2023-05-25T02:38:42.265Z,99.90
2023-05-25T02:41:09.564Z,99.90
2023-05-25T02:43:37.680Z,99.90
2023-05-25T02:46:04.924Z,99.90
2023-05-25T02:48:32.642Z,99.90
2023-05-25T02:50:59.880Z,99.90
2023-05-25T02:53:27.192Z,99.90
2023-05-25T02:55:55.127Z,99.90
2023-05-25T02:58:25.687Z,99.90
2023-05-25T03:01:06.248Z,99.90
2023-05-25T03:03:38.118Z,99.90
2023-05-25T03:06:05.593Z,99.90
2023-05-25T03:08:33.244Z,99.90
2023-05-25T03:11:01.100Z,99.90
2023-05-25T03:13:28.454Z,99.90
2023-05-25T03:15:55.799Z,99.90
2023-05-25T03:18:23.898Z,99.90
2023-05-25T03:20:51.850Z,99.90
2023-05-25T03:23:19.382Z,99.90
2023-05-25T03:25:50.042Z,99.90
2023-05-25T03:28:18.537Z,99.90
2023-05-25T03:30:46.862Z,99.90
2023-05-25T03:33:16.568Z,99.90
2023-05-25T03:35:47.860Z,99.90
2023-05-25T03:38:15.913Z,99.90
2023-05-25T03:40:44.048Z,99.90
2023-05-25T03:43:11.603Z,99.90
2023-05-25T03:45:39.592Z,99.90
2023-05-25T03:48:07.115Z,99.90
2023-05-25T03:50:34.609Z,99.90
2023-05-25T03:53:01.784Z,99.90
2023-05-25T03:55:29.055Z,99.90
2023-05-25T03:57:56.519Z,99.90
2023-05-25T04:00:23.862Z,99.90
2023-05-25T04:02:51.244Z,99.90
2023-05-25T04:05:18.616Z,99.90
2023-05-25T04:07:46.585Z,99.90
2023-05-25T04:10:14.521Z,99.90
2023-05-25T04:12:41.879Z,99.90
2023-05-25T04:15:09.802Z,99.90
2023-05-25T04:17:48.916Z,99.90
2023-05-25T04:20:16.577Z,99.90
2023-05-25T04:22:45.130Z,99.90
2023-05-25T04:25:13.323Z,99.90
2023-05-25T04:27:42.339Z,99.90
2023-05-25T04:30:11.895Z,99.90
2023-05-25T04:32:48.481Z,99.90
2023-05-25T04:35:27.209Z,99.90
2023-05-25T04:37:54.718Z,99.90
2023-05-25T04:40:22.726Z,99.90
2023-05-25T04:42:50.495Z,99.90
2023-05-25T04:45:17.984Z,99.90
2023-05-25T04:47:45.413Z,99.90
2023-05-25T04:50:13.197Z,99.90
2023-05-25T04:52:40.415Z,99.90
2023-05-25T04:55:09.999Z,99.90
2023-05-25T04:57:40.396Z,99.90
2023-05-25T05:00:10.385Z,99.90
2023-05-25T05:02:39.079Z,99.90
2023-05-25T05:05:08.021Z,99.90
2023-05-25T05:07:35.235Z,99.90
2023-05-25T05:10:03.136Z,99.90
2023-05-25T05:12:32.580Z,99.90
2023-05-25T05:15:01.908Z,99.90
2023-05-25T05:17:30.859Z,99.90
2023-05-25T05:19:58.606Z,99.90
2023-05-25T05:22:25.896Z,99.90
2023-05-25T05:24:53.014Z,99.90
2023-05-25T05:27:26.313Z,99.90
2023-05-25T05:29:58.868Z,99.90
2023-05-25T05:32:26.324Z,99.90
2023-05-25T05:34:54.807Z,99.90
2023-05-25T05:37:34.141Z,99.90
2023-05-25T05:40:01.391Z,99.90
2023-05-25T05:42:28.811Z,96.00
2023-05-25T05:44:56.573Z,92.50
2023-05-25T05:47:23.988Z,88.80
2023-05-25T05:49:51.633Z,85.70
2023-05-25T05:52:19.397Z,83.60
2023-05-25T05:54:46.709Z,78.20
2023-05-25T05:57:15.854Z,76.40
2023-05-25T05:59:43.876Z,76.70
2023-05-25T17:59:54.523Z,91.50
2023-05-25T18:02:21.817Z,92.40
2023-05-25T18:04:49.172Z,92.80
2023-05-25T18:07:16.383Z,93.50
2023-05-25T18:09:43.535Z,93.40
2023-05-25T18:12:10.696Z,93.20
2023-05-25T18:14:37.926Z,93.50
2023-05-25T18:17:05.287Z,93.10
2023-05-25T18:19:35.916Z,93.60
2023-05-25T18:22:03.957Z,93.50
2023-05-25T18:24:34.723Z,93.70
2023-05-25T18:27:03.820Z,93.80
2023-05-25T18:29:31.221Z,93.50
2023-05-25T18:31:58.763Z,94.30
2023-05-25T18:34:26.164Z,94.30
2023-05-25T18:36:53.619Z,94.50
2023-05-25T18:39:20.830Z,94.40
2023-05-25T18:41:48.325Z,94.70
2023-05-25T18:44:15.450Z,95.00
2023-05-25T18:46:44.551Z,94.90
2023-05-25T18:49:13.661Z,95.00
2023-05-25T18:51:40.935Z,95.70
2023-05-25T18:54:08.139Z,96.50
2023-05-25T18:56:35.725Z,97.00
2023-05-25T18:59:03.107Z,97.80
2023-05-25T19:01:30.345Z,97.60
2023-05-25T19:03:59.901Z,97.90
2023-05-25T19:06:27.546Z,97.30
2023-05-25T19:08:55.883Z,97.60
2023-05-25T19:11:22.927Z,97.50
2023-05-25T19:13:51.187Z,97.50
2023-05-25T19:16:18.487Z,97.50
2023-05-25T19:18:47.191Z,97.40
2023-05-25T19:21:14.630Z,97.40
2023-05-25T19:23:43.824Z,98.20
2023-05-25T19:26:12.973Z,98.30
2023-05-25T19:28:42.480Z,97.90
2023-05-25T19:31:12.651Z,97.50
2023-05-25T19:33:42.850Z,98.30
2023-05-25T19:36:10.856Z,97.70
2023-05-25T19:38:42.258Z,97.40
2023-05-25T19:41:11.225Z,97.60
2023-05-25T19:43:40.874Z,97.90
2023-05-25T19:46:10.808Z,97.70
2023-05-25T19:48:40.729Z,99.10
2023-05-25T19:51:08.557Z,98.90
2023-05-25T19:53:37.376Z,99.00
2023-05-25T19:56:05.928Z,98.80
2023-05-25T19:58:32.992Z,98.90
2023-05-25T20:01:36.825Z,99.00
2023-05-25T20:04:19.796Z,99.30
2023-05-25T20:06:48.495Z,99.50
2023-05-25T20:09:19.107Z,98.70
2023-05-25T20:11:47.088Z,98.20
2023-05-25T20:14:14.894Z,97.60
2023-05-25T20:16:44.414Z,98.10
2023-05-25T20:20:02.547Z,98.00
2023-05-25T20:22:36.364Z,98.60
2023-05-25T20:25:06.296Z,99.00
2023-05-25T20:27:40.673Z,99.90
2023-05-25T20:30:08.556Z,99.40
2023-05-25T20:32:35.835Z,99.80
2023-05-25T20:35:04.019Z,99.90
2023-05-25T20:37:32.191Z,99.90
2023-05-25T20:40:00.681Z,99.90
2023-05-25T20:42:27.860Z,99.90
2023-05-25T20:44:56.245Z,99.90
2023-05-25T20:47:23.960Z,99.90
2023-05-25T20:50:18.723Z,99.90
2023-05-25T20:52:45.889Z,99.90
2023-05-25T20:55:12.985Z,99.90
2023-05-25T20:57:40.386Z,99.90
2023-05-25T21:00:08.337Z,99.90
2023-05-25T21:02:35.743Z,99.90
2023-05-25T21:05:02.915Z,99.90
2023-05-25T21:07:30.063Z,99.90
2023-05-25T21:09:59.505Z,99.90
2023-05-25T21:12:27.944Z,99.90
2023-05-25T21:14:55.841Z,99.90
2023-05-25T21:17:23.044Z,99.90
2023-05-25T21:19:50.290Z,99.90
2023-05-25T21:22:18.220Z,99.90
2023-05-25T21:24:45.477Z,99.90
2023-05-25T21:27:12.614Z,99.90
2023-05-25T21:29:39.683Z,99.90
2023-05-25T21:32:07.216Z,99.90
2023-05-25T21:34:34.446Z,99.90
2023-05-25T21:37:01.615Z,99.90
2023-05-25T21:39:28.771Z,99.90
2023-05-25T21:41:56.180Z,99.90
2023-05-25T21:44:23.405Z,99.90
2023-05-25T21:46:50.516Z,99.90
2023-05-25T21:49:17.776Z,99.90
2023-05-25T21:51:44.878Z,99.90
2023-05-25T21:54:12.057Z,99.90
2023-05-25T21:56:39.184Z,99.90
2023-05-25T21:59:06.242Z,99.90
2023-05-25T22:01:33.500Z,99.90
2023-05-25T22:04:00.724Z,99.90
2023-05-25T22:06:27.975Z,99.90
2023-05-25T22:08:55.025Z,99.90
2023-05-25T22:11:22.295Z,99.90
2023-05-25T22:13:49.418Z,99.90
2023-05-25T22:16:16.772Z,99.90
2023-05-25T22:18:44.012Z,99.90
2023-05-25T22:21:11.292Z,99.90
2023-05-25T22:23:38.429Z,99.90
2023-05-25T22:26:05.798Z,99.90
2023-05-25T22:28:32.940Z,99.90
2023-05-25T22:31:00.267Z,99.90
2023-05-25T22:33:27.494Z,99.90
2023-05-25T22:35:54.590Z,99.90
2023-05-25T22:38:21.734Z,99.90
2023-05-25T22:40:48.946Z,99.90
2023-05-25T22:43:16.226Z,99.90
2023-05-25T22:45:43.542Z,99.90
2023-05-25T22:48:11.507Z,99.90
2023-05-25T22:50:38.656Z,99.90
2023-05-25T22:53:05.853Z,99.90
2023-05-25T22:55:32.954Z,99.90
2023-05-25T22:58:00.093Z,99.90
2023-05-25T23:00:27.245Z,99.90
2023-05-25T23:02:54.476Z,99.90
2023-05-25T23:05:21.975Z,99.90
2023-05-25T23:07:49.150Z,99.90
2023-05-25T23:10:16.441Z,99.90
2023-05-25T23:12:43.512Z,99.90
2023-05-25T23:15:11.475Z,99.90
2023-05-25T23:17:38.624Z,99.90
2023-05-25T23:20:07.765Z,99.90
2023-05-25T23:22:35.000Z,99.90
2023-05-25T23:25:02.198Z,99.90
2023-05-25T23:27:29.309Z,99.90
2023-05-25T23:29:56.364Z,99.90
2023-05-25T23:32:23.488Z,99.90
2023-05-25T23:34:50.681Z,99.90
2023-05-25T23:37:17.763Z,99.90
2023-05-25T23:39:44.989Z,99.90
2023-05-25T23:42:15.442Z,99.90
2023-05-25T23:44:42.759Z,99.90
2023-05-25T23:47:10.276Z,99.90
2023-05-25T23:49:37.426Z,99.90
2023-05-25T23:52:06.400Z,99.90
2023-05-25T23:54:33.555Z,99.90
2023-05-25T23:57:01.251Z,99.90
2023-05-25T23:59:28.336Z,99.90
